aviador You're here:

KDSF Decoded Metar

in
Report Time2018-07-22 15:55:00
UTC Time2018-07-22 16:09:45
Flight Rules vfr VFR
Wind260° at 22 Gusting to 29 kt
W.Rank260° ranks 20
Current wind is above 260° avg. (14.7)
Visibility9999 m
Phenomena:N/A
Clouds:N/A
Expected CloudBase > 1,600 ft AGL from Temp-Dew spread
CeilingNone
Temp30°C
Dew Point26°C (79% RH)
Heat Index37.4°C
AAT29.1°C
QNH1015 hPa
Raw Report
METAR KDSF 221555Z AUTO 26022G29KT 8SM CLR 30/26 A2996 RMK A01=

Extra information for KDSF:More info

Social comments